createdAt,value
2022-08-07T00:01:42.947Z,11.90
2022-08-07T00:03:53.563Z,14.23
2022-08-07T00:06:33.074Z,11.63
2022-08-07T00:09:17.205Z,10.55
2022-08-07T00:11:56.238Z,13.20
2022-08-07T00:14:31.540Z,12.65
2022-08-07T00:17:02.699Z,11.23
2022-08-07T00:19:34.479Z,11.50
2022-08-07T00:22:24.514Z,11.38
2022-08-07T00:25:11.127Z,11.50
2022-08-07T00:27:52.225Z,11.60
2022-08-07T00:30:27.258Z,12.52
2022-08-07T00:32:57.065Z,14.77
2022-08-07T00:35:24.384Z,12.15
2022-08-07T00:37:51.292Z,12.05
2022-08-07T00:40:39.194Z,13.93
2022-08-07T00:43:09.704Z,13.75
2022-08-07T00:45:38.428Z,11.13
2022-08-07T00:48:10.351Z,12.18
2022-08-07T00:50:50.777Z,10.20
2022-08-07T00:53:20.356Z,12.32
2022-08-07T00:56:03.106Z,11.70
2022-08-07T00:58:31.354Z,12.02
2022-08-07T01:00:58.758Z,11.80
2022-08-07T01:03:56.981Z,10.68
2022-08-07T01:06:12.732Z,10.55
2022-08-07T01:08:43.040Z,11.63
2022-08-07T01:12:27.805Z,11.40
2022-08-07T01:14:05.255Z,11.70
2022-08-07T01:16:32.255Z,12.23
2022-08-07T01:18:59.193Z,13.40
2022-08-07T01:21:26.968Z,13.73
2022-08-07T01:23:56.968Z,13.13
2022-08-07T01:26:26.028Z,14.63
2022-08-07T01:28:53.976Z,11.75
2022-08-07T01:31:21.165Z,11.05
2022-08-07T01:33:55.956Z,10.80
2022-08-07T01:36:33.776Z,12.45
2022-08-07T01:39:01.318Z,10.85
2022-08-07T01:41:31.392Z,11.55
2022-08-07T01:43:59.233Z,10.35
2022-08-07T01:46:28.349Z,10.98
2022-08-07T01:48:57.957Z,11.57
2022-08-07T01:52:02.364Z,10.98
2022-08-07T01:54:32.578Z,10.45
2022-08-07T01:57:24.466Z,10.68
2022-08-07T02:00:12.808Z,10.63
2022-08-07T02:03:19.320Z,12.18
2022-08-07T02:05:59.915Z,13.05
2022-08-07T02:08:29.338Z,11.40
2022-08-07T02:10:59.308Z,12.15
2022-08-07T02:13:57.880Z,11.15
2022-08-07T02:16:18.095Z,13.18
2022-08-07T02:18:47.727Z,13.27
2022-08-07T02:21:17.008Z,11.25
2022-08-07T02:23:45.816Z,11.23
2022-08-07T02:26:32.484Z,12.18
2022-08-07T02:29:03.318Z,11.95
2022-08-07T02:31:32.725Z,11.48
2022-08-07T02:34:03.914Z,10.77
2022-08-07T02:36:39.958Z,11.25
2022-08-07T02:39:17.278Z,10.68
2022-08-07T02:41:58.121Z,11.80
2022-08-07T02:44:34.600Z,13.43
2022-08-07T02:47:03.768Z,11.30
2022-08-07T02:49:58.722Z,12.43
2022-08-07T02:52:32.029Z,11.35
2022-08-07T02:55:03.757Z,12.77
2022-08-07T02:57:35.038Z,12.57
2022-08-07T03:00:04.896Z,13.30
2022-08-07T03:02:42.033Z,11.35
2022-08-07T03:05:24.472Z,12.82
2022-08-07T03:08:07.766Z,12.98
2022-08-07T03:10:40.927Z,11.65
2022-08-07T03:13:15.493Z,12.40
2022-08-07T03:15:55.604Z,12.60
2022-08-07T03:18:24.503Z,13.82
2022-08-07T03:21:03.317Z,11.85
2022-08-07T03:23:33.796Z,14.02
2022-08-07T03:26:23.394Z,15.50
2022-08-07T03:28:51.633Z,14.82
2022-08-07T03:31:24.637Z,14.10
2022-08-07T03:34:01.259Z,16.00
2022-08-07T03:36:29.794Z,14.38
2022-08-07T03:39:05.202Z,13.13
2022-08-07T03:41:42.475Z,15.02
2022-08-07T03:44:15.351Z,14.55
2022-08-07T03:47:13.465Z,17.10
2022-08-07T03:49:30.265Z,13.90
2022-08-07T03:52:01.964Z,13.75
2022-08-07T03:54:35.606Z,16.35
2022-08-07T03:57:07.230Z,15.38
2022-08-07T03:59:34.558Z,13.90
2022-08-07T04:02:01.940Z,13.00
2022-08-07T04:04:28.946Z,15.25
2022-08-07T04:07:00.178Z,15.63
2022-08-07T04:09:44.480Z,16.90
2022-08-07T04:12:25.319Z,16.52
2022-08-07T04:14:56.469Z,21.05
2022-08-07T04:17:23.261Z,19.33
2022-08-07T04:20:11.634Z,17.33
2022-08-07T04:22:53.453Z,19.08
2022-08-07T04:25:23.503Z,16.67
2022-08-07T04:27:59.354Z,14.63
2022-08-07T04:30:43.927Z,19.42
2022-08-07T04:33:15.823Z,16.75
2022-08-07T04:35:50.554Z,16.77
2022-08-07T04:38:18.671Z,13.98
2022-08-07T04:40:51.913Z,15.90
2022-08-07T04:44:10.082Z,17.10
2022-08-07T04:46:34.380Z,16.80
2022-08-07T04:49:18.096Z,16.85
2022-08-07T04:52:00.014Z,14.88
2022-08-07T04:54:55.165Z,16.33
2022-08-07T04:58:13.257Z,16.33
2022-08-07T05:00:33.524Z,17.38
2022-08-07T05:03:59.921Z,17.65
2022-08-07T05:06:28.349Z,17.92
2022-08-07T05:09:18.773Z,15.30
2022-08-07T05:12:09.335Z,17.80
2022-08-07T05:14:56.261Z,16.17
2022-08-07T05:18:00.350Z,17.83
2022-08-07T05:20:21.399Z,18.35
2022-08-07T05:22:51.712Z,19.75
2022-08-07T05:25:25.727Z,21.50
2022-08-07T05:28:20.317Z,21.83
2022-08-07T05:30:52.311Z,20.70
2022-08-07T05:33:20.913Z,17.73
2022-08-07T05:35:52.838Z,19.15
2022-08-07T05:38:59.994Z,17.55
2022-08-07T05:41:14.465Z,15.82
2022-08-07T05:44:01.300Z,13.43
2022-08-07T05:46:37.275Z,13.90
2022-08-07T05:49:11.875Z,13.98
2022-08-07T05:51:42.174Z,13.40
2022-08-07T05:54:19.505Z,14.70
2022-08-07T05:56:57.872Z,12.40
2022-08-07T05:59:26.214Z,14.63
2022-08-07T06:01:57.130Z,14.70
2022-08-07T06:04:26.286Z,13.05
2022-08-07T06:07:03.690Z,11.95
2022-08-07T06:10:04.456Z,11.43
2022-08-07T06:12:21.094Z,12.52
2022-08-07T06:14:55.051Z,12.82
2022-08-07T06:17:32.085Z,11.63
2022-08-07T06:20:05.906Z,11.45
2022-08-07T06:22:42.217Z,10.57
2022-08-07T06:25:29.007Z,11.10
2022-08-07T06:28:09.356Z,8.80
2022-08-07T06:30:45.355Z,8.25
2022-08-07T06:33:16.181Z,10.18
2022-08-07T06:35:47.579Z,7.97
2022-08-07T06:38:30.351Z,9.50
2022-08-07T06:40:59.727Z,8.75
2022-08-07T06:43:39.413Z,7.47
2022-08-07T06:46:12.238Z,7.43
2022-08-07T06:48:42.142Z,11.50
2022-08-07T06:51:30.952Z,7.93
2022-08-07T06:55:28.554Z,7.28
2022-08-07T06:56:50.761Z,9.70
2022-08-07T07:00:14.774Z,7.18
2022-08-07T07:02:48.802Z,6.38
2022-08-07T07:05:08.048Z,8.32
2022-08-07T07:07:59.963Z,6.75
2022-08-07T07:10:29.463Z,7.60
2022-08-07T07:13:07.904Z,7.05
2022-08-07T07:15:43.127Z,7.63
2022-08-07T07:18:47.097Z,7.68
2022-08-07T07:21:40.337Z,8.70
2022-08-07T07:24:16.717Z,6.90
2022-08-07T07:26:51.781Z,6.88
2022-08-07T07:29:39.626Z,6.85
2022-08-07T07:32:13.944Z,8.05
2022-08-07T07:34:45.295Z,10.07
2022-08-07T07:37:22.045Z,9.13
2022-08-07T07:40:04.004Z,11.85
2022-08-07T07:42:43.806Z,7.80
2022-08-07T07:45:19.177Z,8.60
2022-08-07T07:47:53.265Z,7.03
2022-08-07T07:50:36.409Z,9.15
2022-08-07T07:53:20.483Z,10.90
2022-08-07T07:56:00.669Z,9.52
2022-08-07T07:58:40.577Z,8.32
2022-08-07T08:02:03.991Z,9.07
2022-08-07T08:04:09.299Z,6.47
2022-08-07T08:06:50.592Z,8.23
2022-08-07T08:09:20.560Z,7.00
2022-08-07T08:12:01.619Z,7.97
2022-08-07T08:14:34.331Z,7.63
2022-08-07T08:17:32.343Z,6.43
2022-08-07T08:20:17.914Z,6.22
2022-08-07T08:23:12.451Z,6.65
2022-08-07T08:26:06.688Z,6.32
2022-08-07T08:28:39.209Z,6.85
2022-08-07T08:31:22.792Z,6.32
2022-08-07T08:34:05.556Z,7.38
2022-08-07T08:36:36.334Z,4.78
2022-08-07T08:39:08.264Z,7.10
2022-08-07T08:41:57.329Z,6.05
2022-08-07T08:44:44.303Z,3.70
2022-08-07T08:47:52.003Z,5.35
2022-08-07T08:50:34.918Z,3.88
2022-08-07T08:53:33.423Z,4.10
2022-08-07T08:56:06.140Z,4.32
2022-08-07T08:58:57.134Z,3.83
2022-08-07T09:01:59.762Z,4.88
2022-08-07T09:04:55.420Z,3.80
2022-08-07T09:07:34.069Z,4.22
2022-08-07T09:10:33.965Z,3.88
2022-08-07T09:13:35.309Z,3.55
2022-08-07T09:16:22.696Z,4.28
2022-08-07T09:19:52.157Z,4.43
2022-08-07T09:24:31.146Z,5.05
2022-08-07T09:25:53.503Z,4.05
2022-08-07T09:30:06.179Z,3.42
2022-08-07T09:31:56.057Z,3.83
2022-08-07T09:34:56.388Z,3.45
2022-08-07T09:37:48.421Z,4.10
2022-08-07T09:40:29.943Z,3.92
2022-08-07T09:43:00.575Z,3.92
2022-08-07T09:47:42.586Z,5.55
2022-08-07T09:50:01.496Z,3.95
2022-08-07T09:52:15.605Z,5.22
2022-08-07T09:55:17.436Z,3.92
2022-08-07T09:58:32.601Z,3.72
2022-08-07T10:01:51.326Z,3.67
2022-08-07T10:04:52.862Z,5.25
2022-08-07T10:07:25.637Z,3.50
2022-08-07T10:10:21.843Z,3.22
2022-08-07T10:13:29.706Z,3.15
2022-08-07T10:16:01.198Z,3.25
2022-08-07T10:18:51.671Z,4.55
2022-08-07T10:22:12.313Z,3.58
2022-08-07T10:24:50.658Z,3.78
2022-08-07T10:27:46.288Z,4.32
2022-08-07T10:30:18.642Z,3.35
2022-08-07T10:33:15.318Z,3.50
2022-08-07T10:36:36.249Z,4.65
2022-08-07T10:39:22.922Z,4.68
2022-08-07T10:42:20.686Z,2.80
2022-08-07T10:45:09.736Z,3.70
2022-08-07T10:47:53.765Z,3.47
2022-08-07T10:50:50.297Z,3.03
2022-08-07T10:54:00.109Z,3.20
2022-08-07T10:56:49.108Z,3.63
2022-08-07T10:59:40.595Z,3.17
2022-08-07T11:02:34.318Z,3.65
2022-08-07T11:05:44.847Z,3.65
2022-08-07T11:08:54.488Z,2.65
2022-08-07T11:11:35.632Z,3.15
2022-08-07T11:14:43.555Z,3.22
2022-08-07T11:17:13.791Z,3.65
2022-08-07T11:20:03.380Z,3.20
2022-08-07T11:22:51.545Z,3.20
2022-08-07T11:25:42.503Z,3.38
2022-08-07T11:28:24.762Z,3.00
2022-08-07T11:31:22.151Z,3.17
2022-08-07T11:34:00.435Z,3.03
2022-08-07T11:36:56.760Z,3.33
2022-08-07T11:40:01.291Z,4.35
2022-08-07T11:43:00.400Z,2.72
2022-08-07T11:45:53.583Z,2.35
2022-08-07T11:49:51.579Z,2.80
2022-08-07T11:52:29.385Z,2.85
2022-08-07T11:56:15.503Z,2.65
2022-08-07T11:58:21.397Z,3.55
2022-08-07T12:02:00.609Z,3.85
2022-08-07T12:04:42.910Z,3.13
2022-08-07T12:07:27.182Z,3.20
2022-08-07T12:10:05.775Z,4.38
2022-08-07T12:12:40.203Z,3.60
2022-08-07T12:15:46.216Z,3.28
2022-08-07T12:18:45.521Z,3.20
2022-08-07T12:21:21.050Z,3.00
2022-08-07T12:24:37.798Z,3.20
2022-08-07T12:27:14.965Z,3.28
2022-08-07T12:29:59.244Z,2.88
2022-08-07T12:32:52.368Z,2.85
2022-08-07T12:35:20.609Z,3.13
2022-08-07T12:38:11.188Z,3.15
2022-08-07T12:40:47.667Z,2.70
2022-08-07T12:44:01.485Z,2.90
2022-08-07T12:46:09.790Z,2.90
2022-08-07T12:48:53.266Z,2.60
2022-08-07T12:51:46.438Z,3.42
2022-08-07T12:54:38.460Z,3.33
2022-08-07T12:57:10.003Z,3.53
2022-08-07T12:59:55.182Z,3.25
2022-08-07T13:02:49.811Z,3.33
2022-08-07T13:06:02.950Z,3.33
2022-08-07T13:09:02.408Z,3.78
2022-08-07T13:12:02.087Z,3.65
2022-08-07T13:15:03.225Z,2.70
2022-08-07T13:17:57.825Z,3.05
2022-08-07T13:20:44.617Z,3.50
2022-08-07T13:24:01.821Z,4.32
2022-08-07T13:26:15.759Z,4.05
2022-08-07T13:28:58.210Z,3.45
2022-08-07T13:31:54.919Z,3.40
2022-08-07T13:34:44.731Z,3.10
2022-08-07T13:37:27.569Z,3.20
2022-08-07T13:40:35.033Z,4.35
2022-08-07T13:43:12.300Z,3.47
2022-08-07T13:46:12.414Z,3.22
2022-08-07T13:48:34.597Z,3.22
2022-08-07T13:51:02.891Z,3.97
2022-08-07T13:54:07.272Z,3.58
2022-08-07T13:56:41.169Z,3.05
2022-08-07T13:59:27.280Z,3.30
2022-08-07T14:02:07.630Z,3.15
2022-08-07T14:04:57.809Z,3.35
2022-08-07T14:07:30.494Z,3.00
2022-08-07T14:10:02.091Z,3.30
2022-08-07T14:12:54.917Z,3.20
2022-08-07T14:15:44.451Z,3.00
2022-08-07T14:18:44.313Z,3.17
2022-08-07T14:22:01.476Z,2.90
2022-08-07T14:24:36.300Z,5.07
2022-08-07T14:28:11.455Z,3.03
2022-08-07T14:30:07.917Z,3.20
2022-08-07T14:33:00.147Z,2.78
2022-08-07T14:35:43.028Z,3.17
2022-08-07T14:38:26.466Z,2.90
2022-08-07T14:41:03.854Z,3.45
2022-08-07T14:43:58.526Z,2.92
2022-08-07T14:46:31.484Z,5.55
2022-08-07T14:49:55.854Z,3.22
2022-08-07T14:52:03.304Z,3.20
2022-08-07T14:54:35.888Z,3.67
2022-08-07T14:57:15.086Z,4.38
2022-08-07T15:05:25.309Z,2.80
2022-08-07T15:07:52.789Z,3.10
2022-08-07T15:10:26.545Z,2.65
2022-08-07T15:13:00.720Z,2.67
2022-08-07T15:18:36.218Z,2.65
2022-08-07T15:21:58.772Z,2.83
2022-08-07T15:30:16.499Z,2.80
2022-08-07T15:36:00.786Z,2.78
2022-08-07T15:38:33.172Z,2.95
2022-08-07T15:41:23.991Z,2.70
2022-08-07T15:44:11.351Z,3.13
2022-08-07T15:46:51.806Z,3.28
2022-08-07T15:49:25.445Z,3.22
2022-08-07T15:54:27.552Z,2.63
2022-08-07T15:56:59.083Z,3.20
2022-08-07T15:59:39.824Z,3.92
2022-08-07T16:02:23.498Z,2.80
2022-08-07T16:05:01.007Z,2.83
2022-08-07T16:08:30.944Z,2.90
2022-08-07T16:10:26.250Z,2.40
2022-08-07T16:13:57.908Z,2.88
2022-08-07T16:16:49.855Z,2.92
2022-08-07T16:20:01.626Z,3.10
2022-08-07T16:23:09.914Z,3.20
2022-08-07T16:25:55.823Z,3.33
2022-08-07T16:30:06.768Z,2.78
2022-08-07T16:32:06.385Z,2.53
2022-08-07T16:34:59.250Z,2.70
2022-08-07T16:38:06.188Z,2.33
2022-08-07T16:40:57.191Z,2.50
2022-08-07T16:44:05.789Z,2.63
2022-08-07T16:47:06.833Z,2.35
2022-08-07T16:50:20.354Z,3.33
2022-08-07T16:53:47.962Z,4.15
2022-08-07T16:55:53.941Z,3.15
2022-08-07T16:59:14.588Z,3.42
2022-08-07T17:02:53.691Z,2.97
2022-08-07T17:06:19.669Z,3.08
2022-08-07T17:09:04.164Z,2.53
2022-08-07T17:12:04.705Z,2.67
2022-08-07T17:14:42.749Z,3.05
2022-08-07T17:17:46.576Z,2.45
2022-08-07T17:20:30.926Z,2.38
2022-08-07T17:23:11.511Z,2.53
2022-08-07T17:26:03.239Z,2.40
2022-08-07T17:28:50.021Z,2.75
2022-08-07T17:32:03.106Z,2.70
2022-08-07T17:35:32.994Z,2.80
2022-08-07T17:38:05.714Z,2.38
2022-08-07T17:40:56.410Z,3.15
2022-08-07T17:43:39.671Z,3.00
2022-08-07T17:46:34.606Z,2.78
2022-08-07T17:49:23.088Z,2.40
2022-08-07T17:52:00.484Z,3.03
2022-08-07T17:54:53.120Z,2.83
2022-08-07T17:57:58.473Z,2.83
2022-08-07T18:00:34.778Z,2.25
2022-08-07T18:03:27.438Z,2.30
2022-08-07T18:06:38.247Z,2.53
2022-08-07T18:09:08.641Z,2.75
2022-08-07T18:12:18.117Z,3.33
2022-08-07T18:14:51.256Z,3.55
2022-08-07T18:18:46.258Z,3.45
2022-08-07T18:21:03.067Z,3.20
2022-08-07T18:23:50.589Z,2.67
2022-08-07T18:26:38.585Z,2.88
2022-08-07T18:30:05.424Z,2.30
2022-08-07T18:32:29.330Z,2.22
2022-08-07T18:35:01.370Z,3.05
2022-08-07T18:38:56.910Z,6.43
2022-08-07T18:41:17.258Z,2.50
2022-08-07T18:44:17.242Z,4.55
2022-08-07T18:47:00.673Z,2.08
2022-08-07T18:50:39.072Z,2.38
2022-08-07T18:53:02.994Z,4.65
2022-08-07T18:55:42.486Z,3.67
2022-08-07T18:58:51.519Z,2.60
2022-08-07T19:02:32.485Z,3.58
2022-08-07T19:05:15.121Z,2.72
2022-08-07T19:08:10.784Z,3.85
2022-08-07T19:10:51.919Z,4.55
2022-08-07T19:13:44.127Z,3.45
2022-08-07T19:17:06.846Z,2.88
2022-08-07T19:19:50.101Z,3.53
2022-08-07T19:22:31.239Z,4.40
2022-08-07T19:25:06.337Z,3.78
2022-08-07T19:28:56.893Z,4.40
2022-08-07T19:31:03.178Z,4.18
2022-08-07T19:33:18.816Z,4.18
2022-08-07T19:36:01.456Z,3.55
2022-08-07T19:38:32.017Z,4.93
2022-08-07T19:41:02.894Z,3.63
2022-08-07T19:43:48.581Z,4.07
2022-08-07T19:46:26.627Z,5.43
2022-08-07T19:49:08.858Z,4.53
2022-08-07T19:51:52.068Z,3.30
2022-08-07T19:54:29.471Z,4.90
2022-08-07T19:58:02.616Z,5.65
2022-08-07T19:59:56.079Z,6.28
2022-08-07T20:02:34.500Z,4.25
2022-08-07T20:05:08.039Z,4.22
2022-08-07T20:07:47.432Z,5.88
2022-08-07T20:10:36.282Z,5.80
2022-08-07T20:13:23.547Z,3.65
2022-08-07T20:15:54.032Z,5.03
2022-08-07T20:18:33.781Z,3.35
2022-08-07T20:21:14.816Z,3.63
2022-08-07T20:23:57.796Z,4.43
2022-08-07T20:26:38.539Z,4.65
2022-08-07T20:29:47.005Z,4.60
2022-08-07T20:32:03.797Z,5.55
2022-08-07T20:34:50.300Z,5.53
2022-08-07T20:37:24.026Z,3.80
2022-08-07T20:40:04.342Z,3.88
2022-08-07T20:42:33.361Z,5.82
2022-08-07T20:45:01.455Z,5.43
2022-08-07T20:47:56.632Z,3.10
2022-08-07T20:50:20.858Z,4.47
2022-08-07T20:52:51.118Z,5.60
2022-08-07T20:55:23.775Z,3.80
2022-08-07T20:58:02.398Z,4.05
2022-08-07T21:00:44.257Z,5.05
2022-08-07T21:03:16.006Z,6.03
2022-08-07T21:05:54.931Z,6.40
2022-08-07T21:08:44.612Z,5.13
2022-08-07T21:11:17.454Z,7.35
2022-08-07T21:14:20.106Z,4.50
2022-08-07T21:18:02.841Z,4.40
2022-08-07T21:20:00.779Z,6.63
2022-08-07T21:22:53.705Z,5.80
2022-08-07T21:25:56.222Z,4.22
2022-08-07T21:28:48.850Z,4.50
2022-08-07T21:32:42.284Z,6.35
2022-08-07T21:34:46.088Z,7.65
2022-08-07T21:37:23.792Z,5.10
2022-08-07T21:39:59.432Z,6.07
2022-08-07T21:42:46.594Z,8.98
2022-08-07T21:46:08.470Z,5.72
2022-08-07T21:48:57.520Z,5.60
2022-08-07T21:51:51.272Z,5.72
2022-08-07T21:54:36.213Z,7.18
2022-08-07T21:57:40.114Z,5.40
2022-08-07T22:00:25.199Z,7.13
2022-08-07T22:03:18.853Z,5.93
2022-08-07T22:06:01.705Z,6.32
2022-08-07T22:08:46.004Z,6.50
2022-08-07T22:11:18.025Z,7.97
2022-08-07T22:13:53.012Z,7.53
2022-08-07T22:16:46.681Z,6.70
2022-08-07T22:19:30.140Z,6.22
2022-08-07T22:22:27.434Z,7.07
2022-08-07T22:25:12.053Z,6.00
2022-08-07T22:28:29.349Z,5.43
2022-08-07T22:31:05.267Z,7.00
2022-08-07T22:33:56.408Z,6.68
2022-08-07T22:36:38.495Z,6.03
2022-08-07T22:39:16.417Z,7.10
2022-08-07T22:42:18.746Z,7.00
2022-08-07T22:45:02.307Z,7.90
2022-08-07T22:47:56.567Z,6.90
2022-08-07T22:50:37.990Z,8.60
2022-08-07T22:54:07.385Z,6.85
2022-08-07T22:56:39.107Z,7.15
2022-08-07T22:59:46.577Z,6.95
2022-08-07T23:02:27.522Z,6.25
2022-08-07T23:06:07.048Z,7.80
2022-08-07T23:08:04.869Z,9.82
2022-08-07T23:11:16.576Z,7.78
2022-08-07T23:14:25.652Z,8.32
2022-08-07T23:17:20.011Z,8.77
2022-08-07T23:20:51.500Z,10.45
2022-08-07T23:24:04.178Z,7.43
2022-08-07T23:27:15.647Z,8.05
2022-08-07T23:30:37.032Z,8.15
2022-08-07T23:34:34.865Z,7.43
2022-08-07T23:36:30.575Z,7.20
2022-08-07T23:39:40.826Z,9.82
2022-08-07T23:42:35.462Z,7.35
2022-08-07T23:46:01.991Z,6.57
2022-08-07T23:48:41.039Z,7.70
2022-08-07T23:53:05.707Z,8.93
2022-08-07T23:54:43.830Z,9.48
2022-08-07T23:57:29.281Z,7.25
